createdAt,value
2017-09-24T00:05:22.000Z,64.599
2017-09-24T00:15:22.000Z,64.607
2017-09-24T00:25:22.000Z,64.645
2017-09-24T00:35:22.000Z,64.686
2017-09-24T00:45:22.000Z,64.628
2017-09-24T00:55:22.000Z,64.659
2017-09-24T01:05:22.000Z,64.614
2017-09-24T01:15:22.000Z,64.556
2017-09-24T01:25:22.000Z,64.568
2017-09-24T01:35:22.000Z,64.615
2017-09-24T01:45:22.000Z,64.572
2017-09-24T01:55:22.000Z,64.698
2017-09-24T02:05:22.000Z,64.694
2017-09-24T02:15:22.000Z,64.618
2017-09-24T02:25:22.000Z,64.678
2017-09-24T02:35:22.000Z,64.622
2017-09-24T02:45:23.000Z,64.652
2017-09-24T02:55:23.000Z,64.595
2017-09-24T03:05:23.000Z,64.552
2017-09-24T03:15:23.000Z,64.73
2017-09-24T03:25:23.000Z,64.771
2017-09-24T03:35:23.000Z,64.671
2017-09-24T03:45:23.000Z,64.671
2017-09-24T03:55:23.000Z,64.699
2017-09-24T04:05:23.000Z,64.57
2017-09-24T04:15:23.000Z,64.631
2017-09-24T04:25:23.000Z,64.608
2017-09-24T04:35:23.000Z,64.65
2017-09-24T04:45:23.000Z,64.626
2017-09-24T04:55:23.000Z,64.817
2017-09-24T05:05:23.000Z,64.571
2017-09-24T05:15:23.000Z,64.568
2017-09-24T05:25:23.000Z,64.599
2017-09-24T05:35:23.000Z,64.521
2017-09-24T05:45:23.000Z,64.521
2017-09-24T05:55:23.000Z,64.496
2017-09-24T06:05:23.000Z,65.076
2017-09-24T06:15:23.000Z,65.041
2017-09-24T06:25:23.000Z,65.104
2017-09-24T06:35:23.000Z,65.156
2017-09-24T06:45:23.000Z,65.019
2017-09-24T06:55:23.000Z,64.86
2017-09-24T07:05:23.000Z,65.005
2017-09-24T07:15:23.000Z,64.748
2017-09-24T07:25:23.000Z,64.694
2017-09-24T07:35:23.000Z,64.275
2017-09-24T07:45:23.000Z,64.264
2017-09-24T07:55:23.000Z,64.233
2017-09-24T08:05:23.000Z,64.295
2017-09-24T08:15:23.000Z,64.064
2017-09-24T08:25:23.000Z,63.855
2017-09-24T08:35:23.000Z,63.981
2017-09-24T08:45:23.000Z,63.886
2017-09-24T08:55:23.000Z,63.288
2017-09-24T09:05:23.000Z,63.215
2017-09-24T09:15:23.000Z,62.827
2017-09-24T09:25:23.000Z,62.663
2017-09-24T09:35:23.000Z,62.389
2017-09-24T09:45:23.000Z,62.418
2017-09-24T09:55:23.000Z,61.67
2017-09-24T10:05:23.000Z,61.427
2017-09-24T10:15:23.000Z,61.224
2017-09-24T10:25:24.000Z,61.058
2017-09-24T10:35:24.000Z,60.812
2017-09-24T10:45:24.000Z,61.069
2017-09-24T10:55:24.000Z,61.61
2017-09-24T11:05:33.000Z,62.331
2017-09-24T11:15:33.000Z,62.586
2017-09-24T11:25:33.000Z,61.541
2017-09-24T11:35:33.000Z,61.299
2017-09-24T11:45:33.000Z,60.928
2017-09-24T11:55:33.000Z,60.841
2017-09-24T12:05:33.000Z,60.424
2017-09-24T12:15:33.000Z,60.607
2017-09-24T12:25:33.000Z,60.266
2017-09-24T12:35:33.000Z,60.337
2017-09-24T12:45:33.000Z,60.081
2017-09-24T12:55:33.000Z,59.822
2017-09-24T13:05:33.000Z,59.469
2017-09-24T13:15:33.000Z,59.525
2017-09-24T13:25:33.000Z,59.204
2017-09-24T13:35:33.000Z,58.557
2017-09-24T13:45:33.000Z,57.926
2017-09-24T13:55:33.000Z,58.403
2017-09-24T14:05:33.000Z,59.541
2017-09-24T14:15:33.000Z,59.856
2017-09-24T14:25:33.000Z,62.375
2017-09-24T14:35:33.000Z,62.043
2017-09-24T14:45:33.000Z,62.643
2017-09-24T14:55:33.000Z,61.663
2017-09-24T15:05:33.000Z,59.775
2017-09-24T15:15:33.000Z,59.166
2017-09-24T15:25:33.000Z,60
2017-09-24T15:35:33.000Z,60.612
2017-09-24T15:45:33.000Z,61.216
2017-09-24T15:55:33.000Z,61.157
2017-09-24T16:05:33.000Z,61.102
2017-09-24T16:15:33.000Z,61.382
2017-09-24T16:25:33.000Z,61.585
2017-09-24T16:35:33.000Z,61.608
2017-09-24T16:45:33.000Z,61.659
2017-09-24T16:55:37.000Z,61.844
2017-09-24T17:05:33.000Z,62.079
2017-09-24T17:15:33.000Z,61.506
2017-09-24T17:25:33.000Z,61.458
2017-09-24T17:35:33.000Z,61.844
2017-09-24T17:45:36.000Z,61.779
2017-09-24T17:55:33.000Z,61.91
2017-09-24T18:05:33.000Z,62.899
2017-09-24T18:15:33.000Z,63.46
2017-09-24T18:25:33.000Z,63.425
2017-09-24T18:35:36.000Z,64.577
2017-09-24T18:45:34.000Z,64.522
2017-09-24T18:55:35.000Z,64.436
2017-09-24T19:05:34.000Z,64.533
2017-09-24T19:15:34.000Z,64.833
2017-09-24T19:25:34.000Z,64.916
2017-09-24T19:35:34.000Z,64.912
2017-09-24T19:45:34.000Z,64.837
2017-09-24T19:55:34.000Z,64.781
2017-09-24T20:05:34.000Z,65.181
2017-09-24T20:15:34.000Z,64.818
2017-09-24T20:25:34.000Z,65.029
2017-09-24T20:35:34.000Z,65.083
2017-09-24T20:45:34.000Z,63.917
2017-09-24T20:55:34.000Z,63.523
2017-09-24T21:05:34.000Z,63.292
2017-09-24T21:15:34.000Z,63.001
2017-09-24T21:25:34.000Z,63.06
2017-09-24T21:35:34.000Z,62.854
2017-09-24T21:45:37.000Z,63.02
2017-09-24T21:55:34.000Z,63.088
2017-09-24T22:05:34.000Z,62.916
2017-09-24T22:15:34.000Z,63.007
2017-09-24T22:25:34.000Z,62.878
2017-09-24T22:35:34.000Z,62.79
2017-09-24T22:45:34.000Z,62.723
2017-09-24T22:55:34.000Z,62.751
2017-09-24T23:05:34.000Z,62.95
2017-09-24T23:15:34.000Z,62.958
2017-09-24T23:25:34.000Z,63.166
2017-09-24T23:35:34.000Z,62.889
2017-09-24T23:45:34.000Z,62.95
2017-09-24T23:55:34.000Z,62.958
